createdAt,value
2023-03-22T00:01:21.772Z,17.58
2023-03-22T00:03:50.849Z,17.69
2023-03-22T00:06:18.433Z,17.55
2023-03-22T00:08:48.156Z,17.69
2023-03-22T00:11:16.295Z,17.42
2023-03-22T00:13:44.357Z,17.57
2023-03-22T00:16:11.128Z,17.57
2023-03-22T00:18:38.037Z,17.44
2023-03-22T00:21:05.490Z,17.45
2023-03-22T00:23:32.174Z,17.56
2023-03-22T00:25:59.211Z,17.52
2023-03-22T00:28:25.912Z,17.49
2023-03-22T00:31:00.967Z,17.02
2023-03-22T00:33:29.638Z,17.34
2023-03-22T00:36:05.640Z,17.70
2023-03-22T00:38:43.652Z,17.68
2023-03-22T00:41:16.180Z,17.67
2023-03-22T00:43:45.553Z,17.66
2023-03-22T00:46:13.614Z,17.69
2023-03-22T00:48:40.791Z,17.64
2023-03-22T00:51:08.377Z,17.96
2023-03-22T00:53:37.155Z,17.87
2023-03-22T00:56:05.665Z,17.62
2023-03-22T00:58:42.209Z,17.82
2023-03-22T01:01:09.388Z,18.20
2023-03-22T01:03:36.216Z,17.98
2023-03-22T01:06:03.859Z,18.18
2023-03-22T01:08:34.266Z,18.25
2023-03-22T01:11:01.347Z,18.67
2023-03-22T01:13:29.059Z,17.96
2023-03-22T01:15:56.238Z,18.03
2023-03-22T01:18:23.803Z,17.82
2023-03-22T01:20:51.545Z,18.28
2023-03-22T01:23:18.273Z,18.45
2023-03-22T01:25:45.113Z,18.50
2023-03-22T01:28:11.861Z,18.31
2023-03-22T01:30:41.469Z,19.00
2023-03-22T01:33:08.909Z,18.65
2023-03-22T01:35:36.926Z,18.91
2023-03-22T01:38:05.690Z,18.81
2023-03-22T01:40:36.545Z,19.06
2023-03-22T01:43:03.710Z,19.03
2023-03-22T01:45:46.720Z,18.92
2023-03-22T01:48:20.098Z,17.98
2023-03-22T01:51:12.090Z,18.69
2023-03-22T01:54:02.379Z,19.18
2023-03-22T01:56:33.462Z,19.43
2023-03-22T01:59:01.533Z,19.58
2023-03-22T02:01:38.613Z,18.90
2023-03-22T02:04:12.303Z,19.47
2023-03-22T02:06:39.989Z,19.74
2023-03-22T02:09:14.448Z,19.39
2023-03-22T02:11:44.145Z,19.82
2023-03-22T02:14:39.200Z,18.66
2023-03-22T02:17:51.564Z,19.12
2023-03-22T02:20:38.339Z,19.59
2023-03-22T02:23:22.416Z,19.39
2023-03-22T02:26:04.306Z,19.25
2023-03-22T02:28:46.340Z,19.15
2023-03-22T02:31:26.432Z,18.47
2023-03-22T02:34:21.387Z,19.00
2023-03-22T02:37:25.963Z,18.95
2023-03-22T02:40:15.748Z,19.39
2023-03-22T02:42:52.406Z,19.19
2023-03-22T02:45:35.602Z,19.15
2023-03-22T02:48:02.700Z,19.41
2023-03-22T02:50:38.552Z,19.47
2023-03-22T02:53:09.971Z,19.24
2023-03-22T02:55:48.889Z,19.41
2023-03-22T02:58:21.300Z,18.99
2023-03-22T03:00:51.425Z,19.37
2023-03-22T03:03:19.927Z,19.49
2023-03-22T03:05:55.943Z,19.18
2023-03-22T03:08:23.962Z,19.49
2023-03-22T03:10:52.579Z,18.76
2023-03-22T03:13:20.745Z,19.03
2023-03-22T03:15:59.201Z,18.86
2023-03-22T03:18:52.575Z,19.48
2023-03-22T03:21:24.165Z,18.89
2023-03-22T03:24:10.152Z,18.95
2023-03-22T03:27:04.291Z,18.87
2023-03-22T03:29:34.390Z,19.19
2023-03-22T03:32:10.499Z,19.78
2023-03-22T03:34:49.617Z,19.77
2023-03-22T03:37:22.759Z,18.35
2023-03-22T03:39:59.633Z,18.48
2023-03-22T03:42:28.808Z,18.54
2023-03-22T03:44:57.367Z,18.70
2023-03-22T03:47:25.989Z,19.00
2023-03-22T03:49:52.540Z,19.51
2023-03-22T03:52:19.404Z,19.86
2023-03-22T03:54:46.133Z,19.97
2023-03-22T03:57:18.002Z,19.00
2023-03-22T03:59:45.033Z,19.72
2023-03-22T04:02:22.168Z,19.11
2023-03-22T04:04:50.569Z,19.45
2023-03-22T04:07:18.651Z,19.33
2023-03-22T04:09:45.604Z,19.72
2023-03-22T04:12:22.628Z,20.05
2023-03-22T04:15:13.594Z,19.57
2023-03-22T04:17:42.770Z,19.25
2023-03-22T04:20:12.728Z,19.39
2023-03-22T04:22:41.092Z,20.17
2023-03-22T04:25:14.960Z,19.91
2023-03-22T04:27:51.498Z,20.09
2023-03-22T04:30:20.237Z,20.86
2023-03-22T04:33:08.651Z,20.37
2023-03-22T04:35:57.487Z,20.45
2023-03-22T04:38:31.031Z,20.17
2023-03-22T04:40:58.418Z,20.33
2023-03-22T04:43:34.947Z,19.83
2023-03-22T04:46:04.626Z,19.94
2023-03-22T04:48:42.330Z,19.87
2023-03-22T04:51:11.660Z,19.78
2023-03-22T04:53:45.279Z,19.16
2023-03-22T04:56:14.368Z,19.26
2023-03-22T04:58:43.980Z,19.00
2023-03-22T05:01:14.255Z,19.06
2023-03-22T05:03:45.472Z,19.29
2023-03-22T05:06:14.189Z,18.63
2023-03-22T05:08:57.017Z,18.65
2023-03-22T05:11:27.593Z,18.70
2023-03-22T05:14:10.993Z,18.41
2023-03-22T05:16:41.852Z,18.43
2023-03-22T05:19:14.315Z,18.53
2023-03-22T05:21:45.036Z,18.81
2023-03-22T05:24:11.904Z,17.80
2023-03-22T05:26:42.681Z,18.76
2023-03-22T05:29:11.737Z,18.26
2023-03-22T05:31:58.265Z,18.60
2023-03-22T05:34:25.074Z,17.92
2023-03-22T05:36:51.752Z,18.60
2023-03-22T05:39:32.377Z,18.50
2023-03-22T05:41:59.866Z,18.65
2023-03-22T05:44:26.994Z,18.01
2023-03-22T05:47:03.407Z,18.37
2023-03-22T05:49:35.940Z,18.22
2023-03-22T05:52:05.986Z,18.68
2023-03-22T05:54:50.448Z,18.48
2023-03-22T05:57:17.766Z,18.30
2023-03-22T05:59:44.576Z,17.95
2023-03-22T06:02:18.063Z,18.59
2023-03-22T06:04:44.803Z,18.64
2023-03-22T06:07:14.374Z,18.45
2023-03-22T06:09:53.385Z,18.59
2023-03-22T06:12:27.160Z,18.40
2023-03-22T06:15:24.302Z,18.78
2023-03-22T06:18:00.184Z,19.13
2023-03-22T06:20:30.935Z,18.79
2023-03-22T06:23:02.862Z,18.75
2023-03-22T06:25:29.562Z,18.00
2023-03-22T06:27:57.008Z,18.60
2023-03-22T06:30:26.095Z,18.77
2023-03-22T06:33:13.521Z,19.62
2023-03-22T06:35:44.431Z,19.91
2023-03-22T06:38:14.926Z,19.43
2023-03-22T06:40:42.865Z,19.37
2023-03-22T06:43:09.626Z,19.23
2023-03-22T06:45:39.755Z,19.53
2023-03-22T06:48:07.483Z,19.32
2023-03-22T06:50:47.086Z,20.29
2023-03-22T06:53:18.436Z,19.93
2023-03-22T06:55:45.339Z,19.54
2023-03-22T06:58:18.503Z,20.31
2023-03-22T07:00:45.371Z,19.79
2023-03-22T07:03:13.692Z,19.43
2023-03-22T07:05:44.943Z,19.02
2023-03-22T07:08:12.105Z,19.43
2023-03-22T07:10:50.167Z,20.10
2023-03-22T07:13:18.082Z,20.16
2023-03-22T07:15:46.114Z,19.57
2023-03-22T07:18:29.624Z,20.40
2023-03-22T07:20:56.722Z,20.53
2023-03-22T07:23:23.270Z,20.94
2023-03-22T07:25:52.499Z,20.06
2023-03-22T07:28:25.767Z,20.24
2023-03-22T07:31:08.104Z,20.68
2023-03-22T07:33:46.165Z,20.66
2023-03-22T07:36:13.579Z,20.42
2023-03-22T07:38:41.254Z,20.21
2023-03-22T07:41:13.771Z,21.13
2023-03-22T07:43:58.398Z,20.15
2023-03-22T07:46:29.891Z,20.66
2023-03-22T07:49:16.229Z,19.68
2023-03-22T07:51:48.617Z,20.24
2023-03-22T07:54:30.565Z,20.57
2023-03-22T07:57:01.030Z,20.12
2023-03-22T07:59:28.183Z,20.57
2023-03-22T08:01:55.019Z,20.14
2023-03-22T08:04:30.862Z,20.31
2023-03-22T08:07:18.583Z,20.72
2023-03-22T08:09:49.548Z,20.75
2023-03-22T08:12:16.215Z,21.00
2023-03-22T08:14:50.393Z,21.01
2023-03-22T08:17:21.214Z,20.30
2023-03-22T08:19:48.058Z,21.16
2023-03-22T08:22:25.177Z,22.20
2023-03-22T08:25:10.975Z,21.61
2023-03-22T08:27:41.420Z,21.78
2023-03-22T08:30:10.671Z,22.20
2023-03-22T08:32:37.334Z,21.45
2023-03-22T08:35:08.131Z,21.33
2023-03-22T08:37:35.166Z,21.22
2023-03-22T08:40:08.790Z,21.44
2023-03-22T08:42:50.423Z,20.90
2023-03-22T08:45:18.181Z,20.74
2023-03-22T08:47:52.406Z,21.36
2023-03-22T08:50:23.427Z,22.31
2023-03-22T08:52:57.987Z,22.10
2023-03-22T08:55:31.613Z,21.69
2023-03-22T08:57:59.103Z,21.43
2023-03-22T09:00:48.101Z,21.63
2023-03-22T09:03:45.814Z,21.05
2023-03-22T09:06:13.605Z,21.20
2023-03-22T09:08:42.172Z,21.00
2023-03-22T09:11:17.630Z,21.37
2023-03-22T09:13:46.335Z,21.72
2023-03-22T09:16:13.555Z,21.16
2023-03-22T09:18:42.577Z,21.14
2023-03-22T09:21:21.745Z,21.57
2023-03-22T09:24:08.656Z,21.75
2023-03-22T09:26:49.440Z,21.50
2023-03-22T09:29:19.738Z,22.18
2023-03-22T09:31:48.987Z,22.35
2023-03-22T09:34:36.699Z,21.80
2023-03-22T09:37:04.285Z,22.05
2023-03-22T09:39:41.837Z,21.65
2023-03-22T09:42:34.894Z,21.65
2023-03-22T09:45:06.812Z,22.45
2023-03-22T09:47:44.876Z,21.29
2023-03-22T09:50:17.928Z,21.77
2023-03-22T09:52:45.104Z,21.72
2023-03-22T09:55:41.207Z,21.24
2023-03-22T09:58:26.986Z,21.53
2023-03-22T10:01:05.219Z,20.84
2023-03-22T10:03:41.919Z,21.54
2023-03-22T10:06:18.508Z,21.43
2023-03-22T10:08:54.305Z,20.47
2023-03-22T10:11:32.219Z,19.97
2023-03-22T10:14:20.915Z,20.72
2023-03-22T10:16:49.036Z,20.96
2023-03-22T10:19:41.422Z,20.97
2023-03-22T10:22:14.196Z,21.25
2023-03-22T10:24:44.877Z,21.68
2023-03-22T10:27:16.866Z,20.35
2023-03-22T10:30:18.240Z,19.63
2023-03-22T10:33:03.286Z,20.15
2023-03-22T10:35:31.671Z,19.78
2023-03-22T10:38:02.129Z,21.00
2023-03-22T10:40:32.975Z,21.18
2023-03-22T10:43:05.781Z,20.19
2023-03-22T10:45:35.273Z,20.87
2023-03-22T10:48:11.697Z,21.09
2023-03-22T10:50:42.241Z,21.66
2023-03-22T10:53:18.671Z,21.01
2023-03-22T10:55:45.720Z,21.16
2023-03-22T10:58:16.798Z,21.42
2023-03-22T11:00:49.170Z,22.04
2023-03-22T11:03:28.076Z,21.56
2023-03-22T11:06:01.616Z,21.67
2023-03-22T11:08:28.406Z,20.62
2023-03-22T11:10:59.245Z,21.09
2023-03-22T11:13:26.168Z,21.01
2023-03-22T11:15:58.076Z,21.47
2023-03-22T11:18:28.859Z,20.76
2023-03-22T11:20:59.795Z,21.37
2023-03-22T11:23:29.282Z,22.05
2023-03-22T11:25:59.809Z,21.01
2023-03-22T11:28:33.023Z,21.42
2023-03-22T11:31:15.045Z,21.39
2023-03-22T11:34:01.589Z,21.16
2023-03-22T11:36:29.232Z,20.99
2023-03-22T11:39:00.739Z,21.07
2023-03-22T11:41:30.969Z,21.59
2023-03-22T11:44:12.123Z,20.65
2023-03-22T11:46:40.123Z,20.81
2023-03-22T11:49:17.062Z,21.27
2023-03-22T11:51:45.015Z,20.18
2023-03-22T11:54:27.271Z,20.88
2023-03-22T11:57:02.504Z,21.33
2023-03-22T11:59:36.643Z,21.02
2023-03-22T12:02:31.325Z,22.14
2023-03-22T12:05:14.078Z,21.38
2023-03-22T12:07:41.623Z,21.99
2023-03-22T12:10:26.582Z,21.54
2023-03-22T12:13:10.612Z,20.87
2023-03-22T12:15:48.413Z,21.32
2023-03-22T12:18:27.017Z,21.61
2023-03-22T12:21:01.511Z,21.46
2023-03-22T12:23:31.841Z,21.79
2023-03-22T12:26:28.213Z,22.34
2023-03-22T12:29:09.644Z,22.27
2023-03-22T12:31:44.726Z,23.60
2023-03-22T12:34:20.674Z,24.21
2023-03-22T12:36:56.258Z,24.17
2023-03-22T12:39:28.909Z,23.67
2023-03-22T12:42:02.825Z,23.76
2023-03-22T12:44:46.488Z,23.59
2023-03-22T12:47:25.209Z,22.74
2023-03-22T12:50:07.448Z,22.51
2023-03-22T12:52:45.988Z,22.70
2023-03-22T12:55:28.739Z,21.87
2023-03-22T12:57:56.231Z,22.06
2023-03-22T13:00:50.835Z,22.05
2023-03-22T13:03:29.103Z,21.63
2023-03-22T13:06:03.285Z,21.51
2023-03-22T13:09:16.006Z,21.73
2023-03-22T13:12:29.637Z,21.59
2023-03-22T13:15:00.338Z,21.19
2023-03-22T13:17:30.356Z,21.64
2023-03-22T13:20:23.652Z,21.28
2023-03-22T13:22:50.436Z,21.55
2023-03-22T13:25:18.831Z,21.50
2023-03-22T13:27:46.106Z,21.17
2023-03-22T13:30:22.083Z,21.26
2023-03-22T13:33:04.635Z,20.82
2023-03-22T13:35:44.798Z,21.15
2023-03-22T13:38:22.896Z,20.90
2023-03-22T13:41:07.207Z,21.56
2023-03-22T13:43:33.861Z,21.39
2023-03-22T13:46:09.676Z,20.98
2023-03-22T13:48:44.602Z,21.40
2023-03-22T13:51:32.368Z,21.44
2023-03-22T13:54:04.878Z,22.00
2023-03-22T13:56:45.656Z,20.79
2023-03-22T13:59:30.374Z,21.43
2023-03-22T14:02:04.850Z,20.90
2023-03-22T14:04:48.404Z,21.14
2023-03-22T14:07:38.766Z,21.44
2023-03-22T14:10:21.258Z,21.37
2023-03-22T14:12:49.190Z,21.22
2023-03-22T14:15:20.277Z,21.09
2023-03-22T14:17:53.686Z,20.88
2023-03-22T14:20:23.017Z,21.24
